Time;durP1;ratioP1;P1;durP2;ratioP2;P2;SDS_P1;SDS_P2;PMS_P1;PMS_P2;Temp;Humidity;BMP_temperature;BMP_pressure;BME280_temperature;BME280_humidity;BME280_pressure;Samples;Min_cycle;Max_cycle;Signal;HPM_P1;HPM_P2
2022/10/27 00:00:17;;;;;;;10.77;3.75;;;;;;;14.89;100.00;102125.81;5068926;28;20024;-63
2022/10/27 00:02:42;;;;;;;10.38;3.95;;;;;;;14.84;100.00;102128.63;5051147;28;20478;-64
2022/10/27 00:05:08;;;;;;;16.80;4.55;;;;;;;14.77;100.00;102127.91;5069110;28;20027;-65
2022/10/27 00:07:37;;;;;;;9.73;4.20;;;;;;;14.71;100.00;102127.22;5052405;28;20036;-62
2022/10/27 00:10:04;;;;;;;11.05;3.95;;;;;;;14.64;100.00;102127.44;5069824;28;20556;-63
2022/10/27 00:12:30;;;;;;;15.05;4.10;;;;;;;14.62;100.00;102128.38;5069297;28;20063;-64
2022/10/27 00:14:55;;;;;;;10.90;4.40;;;;;;;14.64;100.00;102124.78;5070309;28;20492;-65
2022/10/27 00:17:21;;;;;;;11.70;3.97;;;;;;;14.61;100.00;102121.34;5069695;28;20043;-64
2022/10/27 00:19:46;;;;;;;9.63;4.28;;;;;;;14.59;100.00;102129.34;5068049;28;20025;-65
2022/10/27 00:22:11;;;;;;;15.27;4.40;;;;;;;14.56;100.00;102126.78;5069252;28;20552;-64
2022/10/27 00:24:37;;;;;;;11.00;3.97;;;;;;;14.50;100.00;102129.63;5050420;28;20514;-65
2022/10/27 00:27:02;;;;;;;10.38;4.32;;;;;;;14.43;100.00;102133.38;5067671;28;20028;-62
2022/10/27 00:29:27;;;;;;;12.90;4.80;;;;;;;14.43;100.00;102128.06;5069187;28;20162;-64
2022/10/27 00:31:53;;;;;;;12.40;5.63;;;;;;;14.42;100.00;102131.66;5069159;28;20030;-63
2022/10/27 00:34:18;;;;;;;12.52;5.07;;;;;;;14.40;100.00;102129.91;5068920;28;20043;-63
2022/10/27 00:36:43;;;;;;;12.20;5.03;;;;;;;14.39;100.00;102137.91;5068932;28;20063;-63
2022/10/27 00:39:09;;;;;;;13.02;5.13;;;;;;;14.35;100.00;102133.59;5067478;28;20021;-63
2022/10/27 00:41:37;;;;;;;9.82;5.05;;;;;;;14.30;100.00;102139.03;5068086;28;20086;-63
2022/10/27 00:44:45;;;;;;;11.88;5.45;;;;;;;14.26;100.00;102142.69;5067624;28;20035;-62
2022/10/27 00:47:12;;;;;;;15.32;5.22;;;;;;;14.24;100.00;102139.22;5059271;28;20080;-62
2022/10/27 00:49:52;;;;;;;8.52;4.90;;;;;;;14.20;100.00;102148.16;5069231;28;20036;-63
2022/10/27 00:52:24;;;;;;;17.85;6.53;;;;;;;14.19;100.00;102151.72;5050405;28;20039;-62
2022/10/27 00:54:49;;;;;;;12.88;5.70;;;;;;;14.17;100.00;102148.25;5068381;28;20024;-64
2022/10/27 00:57:15;;;;;;;11.98;6.32;;;;;;;14.14;100.00;102155.38;5049788;28;20039;-64
2022/10/27 00:59:40;;;;;;;15.00;6.00;;;;;;;14.14;100.00;102147.44;5050732;28;20475;-63
2022/10/27 01:02:07;;;;;;;15.10;6.53;;;;;;;14.11;100.00;102150.16;5066525;28;20020;-65
2022/10/27 01:04:55;;;;;;;15.05;5.72;;;;;;;14.11;100.00;102155.47;5068655;28;20021;-62
2022/10/27 01:07:21;;;;;;;15.05;6.10;;;;;;;14.07;100.00;102159.13;5049019;28;20028;-63
2022/10/27 01:09:47;;;;;;;12.07;6.20;;;;;;;14.04;100.00;102167.16;5050471;28;20032;-64
2022/10/27 01:12:13;;;;;;;17.20;6.38;;;;;;;13.98;100.00;102162.91;5049723;28;20025;-63
2022/10/27 01:14:38;;;;;;;11.18;6.32;;;;;;;13.97;100.00;102161.13;5047118;28;20102;-65
2022/10/27 01:17:13;;;;;;;10.68;6.55;;;;;;;13.94;100.00;102157.72;5048318;28;20037;-63
2022/10/27 01:19:51;;;;;;;14.73;6.90;;;;;;;13.87;100.00;102163.16;5048208;28;20033;-65
2022/10/27 01:22:57;;;;;;;17.60;6.72;;;;;;;13.83;100.00;102156.22;5048489;28;20092;-64
2022/10/27 01:25:52;;;;;;;10.48;6.20;;;;;;;13.76;100.00;102154.66;5016701;28;20471;-62
2022/10/27 01:28:48;;;;;;;17.13;6.80;;;;;;;13.71;100.00;102153.88;5045100;28;20037;-64
2022/10/27 01:31:19;;;;;;;17.50;6.70;;;;;;;13.69;100.00;102155.72;5046718;28;20025;-65
2022/10/27 01:33:51;;;;;;;16.10;8.30;;;;;;;13.70;100.00;102146.84;5045767;28;20125;-63
2022/10/27 01:36:23;;;;;;;18.35;8.45;;;;;;;13.67;100.00;102149.59;5046776;28;20498;-64
2022/10/27 01:38:55;;;;;;;15.00;8.20;;;;;;;13.66;100.00;102153.16;5046668;28;20021;-64
2022/10/27 01:41:33;;;;;;;14.07;7.47;;;;;;;13.64;100.00;102153.19;5047008;28;20021;-63
2022/10/27 01:44:03;;;;;;;18.47;7.63;;;;;;;13.66;100.00;102145.22;5047079;28;20025;-63
2022/10/27 01:46:28;;;;;;;14.57;8.20;;;;;;;13.64;100.00;102146.09;5048338;28;20064;-64
2022/10/27 01:48:54;;;;;;;17.92;8.13;;;;;;;13.63;100.00;102143.47;5046151;28;20067;-67
2022/10/27 01:51:19;;;;;;;23.17;8.57;;;;;;;13.62;100.00;102153.22;5046958;28;20029;-65
2022/10/27 01:53:46;;;;;;;18.92;8.43;;;;;;;13.61;100.00;102146.16;5046329;28;20033;-62
2022/10/27 01:56:34;;;;;;;19.77;7.95;;;;;;;13.63;100.00;102146.13;5046269;28;20028;-65
2022/10/27 01:59:17;;;;;;;17.75;7.25;;;;;;;13.60;100.00;102148.84;5047864;28;20128;-64
2022/10/27 02:01:52;;;;;;;13.70;7.60;;;;;;;13.57;100.00;102136.56;5047499;28;20057;-65
2022/10/27 02:04:18;;;;;;;12.07;7.82;;;;;;;13.54;100.00;102135.81;5047462;28;20028;-62
2022/10/27 02:07:02;;;;;;;17.33;7.70;;;;;;;13.52;100.00;102135.84;5047798;28;20040;-64
2022/10/27 02:09:47;;;;;;;19.55;7.85;;;;;;;13.49;100.00;102135.88;5046528;28;20029;-65
2022/10/27 02:12:23;;;;;;;18.35;8.05;;;;;;;13.49;100.00;102130.59;5044934;28;20484;-62
2022/10/27 02:14:50;;;;;;;16.67;7.82;;;;;;;13.54;100.00;102130.50;5045088;28;20097;-64
2022/10/27 02:17:17;;;;;;;22.58;7.82;;;;;;;13.56;100.00;102131.31;5028525;28;20489;-64
2022/10/27 02:19:45;;;;;;;11.45;7.25;;;;;;;13.55;100.00;102124.28;5047107;28;20107;-62
2022/10/27 02:22:11;;;;;;;18.15;8.10;;;;;;;13.56;100.00;102131.31;5046057;28;20021;-64
2022/10/27 02:24:36;;;;;;;15.65;7.28;;;;;;;13.55;100.00;102125.16;5047079;28;20031;-64
2022/10/27 02:27:09;;;;;;;19.92;7.22;;;;;;;13.55;100.00;102125.16;5046617;28;20094;-64
2022/10/27 02:29:46;;;;;;;18.25;7.38;;;;;;;13.53;100.00;102124.31;5044528;28;20025;-64
2022/10/27 02:32:15;;;;;;;11.48;6.40;;;;;;;13.49;100.00;102125.28;5044955;28;20039;-63
2022/10/27 02:34:42;;;;;;;17.58;6.75;;;;;;;13.49;100.00;102125.28;5043637;28;20032;-63
2022/10/27 02:37:08;;;;;;;15.15;7.03;;;;;;;13.49;100.00;102125.28;5043193;28;20027;-64
2022/10/27 02:39:34;;;;;;;15.00;7.30;;;;;;;13.46;100.00;102112.13;5045026;28;20021;-63
2022/10/27 02:42:00;;;;;;;16.65;7.40;;;;;;;13.43;100.00;102120.16;5043828;28;20048;-63
2022/10/27 02:44:25;;;;;;;20.38;7.28;;;;;;;13.45;100.00;102115.69;5045220;28;20025;-62
2022/10/27 02:46:50;;;;;;;12.65;6.65;;;;;;;13.40;100.00;102108.72;5045338;28;20052;-64
2022/10/27 02:49:16;;;;;;;20.48;7.07;;;;;;;13.38;100.00;102096.44;5046556;28;20017;-63
2022/10/27 02:51:41;;;;;;;13.43;6.65;;;;;;;13.34;100.00;102106.22;5045428;28;20100;-61
2022/10/27 02:54:06;;;;;;;16.13;6.65;;;;;;;13.35;100.00;102099.16;5046092;28;20136;-63
2022/10/27 02:56:32;;;;;;;16.08;7.30;;;;;;;13.33;100.00;102104.50;5044085;28;20104;-67
2022/10/27 02:58:57;;;;;;;16.17;7.07;;;;;;;13.32;100.00;102104.53;5046120;28;20125;-64
2022/10/27 03:01:22;;;;;;;12.35;6.43;;;;;;;13.31;100.00;102105.44;5045266;28;20037;-65
2022/10/27 03:03:48;;;;;;;11.10;6.53;;;;;;;13.30;100.00;102104.56;5046028;28;20045;-63
2022/10/27 03:06:13;;;;;;;14.50;6.47;;;;;;;13.31;100.00;102103.69;5048727;28;20519;-64
2022/10/27 03:08:38;;;;;;;14.63;6.63;;;;;;;13.27;100.00;102105.50;5050972;28;20021;-64
2022/10/27 03:11:04;;;;;;;15.45;7.18;;;;;;;13.27;100.00;102107.28;5049839;28;20052;-63
2022/10/27 03:13:29;;;;;;;13.15;6.47;;;;;;;13.24;100.00;102107.34;5053599;28;20041;-62
2022/10/27 03:15:54;;;;;;;12.95;7.00;;;;;;;13.25;100.00;102103.81;5068916;28;20105;-64
2022/10/27 03:18:20;;;;;;;14.90;6.43;;;;;;;13.24;100.00;102102.06;5070334;28;20048;-65
2022/10/27 03:20:45;;;;;;;18.92;6.50;;;;;;;13.27;100.00;102102.00;5069577;28;20640;-64
2022/10/27 03:23:11;;;;;;;14.60;6.63;;;;;;;13.27;100.00;102097.56;5052336;28;20032;-63
2022/10/27 03:25:39;;;;;;;10.18;6.40;;;;;;;13.26;100.00;102095.84;5070754;28;20027;-64
2022/10/27 03:28:04;;;;;;;17.10;6.47;;;;;;;13.28;100.00;102101.09;5069630;28;20900;-64
2022/10/27 03:30:30;;;;;;;15.23;6.13;;;;;;;13.32;100.00;102102.75;5070627;28;20052;-64
2022/10/27 03:32:55;;;;;;;20.40;6.75;;;;;;;13.33;100.00;102093.91;5069771;28;20066;-63
2022/10/27 03:35:20;;;;;;;14.98;6.80;;;;;;;13.30;100.00;102098.41;5068242;28;20066;-65
2022/10/27 03:37:53;;;;;;;14.38;5.85;;;;;;;13.30;100.00;102093.97;5069795;28;20471;-64
2022/10/27 03:40:19;;;;;;;18.27;5.70;;;;;;;13.25;100.00;102094.09;5069280;28;20544;-64
2022/10/27 03:42:44;;;;;;;13.75;5.38;;;;;;;13.25;100.00;102111.75;5068493;28;20044;-64
2022/10/27 03:45:10;;;;;;;18.77;6.10;;;;;;;13.19;100.00;102110.16;5069333;28;20074;-64
2022/10/27 03:47:36;;;;;;;11.85;6.47;;;;;;;13.23;100.00;102113.56;5069450;28;20030;-64
2022/10/27 03:50:01;;;;;;;20.42;6.80;;;;;;;13.15;100.00;102113.75;5070016;28;20028;-63
2022/10/27 03:52:26;;;;;;;16.70;6.43;;;;;;;13.10;100.00;102119.16;5069847;28;20161;-64
2022/10/27 03:54:52;;;;;;;12.38;5.90;;;;;;;13.09;100.00;102120.06;5068510;28;20024;-59
2022/10/27 03:57:17;;;;;;;19.02;6.53;;;;;;;13.06;100.00;102122.78;5050840;28;20027;-64
2022/10/27 03:59:42;;;;;;;18.70;6.50;;;;;;;13.05;100.00;102121.06;5069081;28;20098;-63
2022/10/27 04:02:07;;;;;;;14.00;6.65;;;;;;;13.05;100.00;102114.88;5067425;28;20036;-64
2022/10/27 04:04:33;;;;;;;11.20;6.50;;;;;;;12.99;100.00;102118.53;5069486;28;20031;-62
2022/10/27 04:06:58;;;;;;;14.75;6.95;;;;;;;13.00;100.00;102122.91;5069421;28;20039;-64
2022/10/27 04:09:23;;;;;;;21.23;7.05;;;;;;;13.00;100.00;102130.84;5069700;28;20025;-63
2022/10/27 04:11:49;;;;;;;13.77;7.03;;;;;;;12.99;100.00;102129.13;5069069;28;20108;-64
2022/10/27 04:14:14;;;;;;;11.80;6.68;;;;;;;12.99;100.00;102126.47;5069526;28;20128;-63
2022/10/27 04:16:40;;;;;;;17.48;7.18;;;;;;;12.99;100.00;102129.13;5066787;28;20051;-63
2022/10/27 04:19:05;;;;;;;16.80;6.75;;;;;;;12.99;100.00;102123.84;5068153;28;20491;-64
2022/10/27 04:21:30;;;;;;;14.13;6.55;;;;;;;12.97;100.00;102128.28;5069301;28;20052;-63
2022/10/27 04:23:55;;;;;;;15.02;6.68;;;;;;;12.96;100.00;102129.19;5068374;28;20439;-63
2022/10/27 04:26:21;;;;;;;19.92;6.22;;;;;;;12.97;100.00;102134.44;5068575;28;20406;-63
2022/10/27 04:28:46;;;;;;;16.40;6.45;;;;;;;13.00;100.00;102128.22;5068950;28;20471;-64
2022/10/27 04:31:12;;;;;;;12.48;6.43;;;;;;;13.04;100.00;102131.66;5068190;28;20060;-63
2022/10/27 04:33:37;;;;;;;17.02;6.78;;;;;;;13.08;100.00;102131.56;5068596;28;20052;-62
2022/10/27 04:36:05;;;;;;;14.98;7.20;;;;;;;13.13;100.00;102131.47;5068648;28;20103;-62
2022/10/27 04:38:31;;;;;;;17.10;7.50;;;;;;;13.16;100.00;102128.75;5068428;28;20041;-63
2022/10/27 04:40:59;;;;;;;19.85;7.75;;;;;;;13.19;100.00;102127.78;5067831;28;20417;-66
2022/10/27 04:43:24;;;;;;;15.70;6.87;;;;;;;13.23;100.00;102132.09;5067961;28;20042;-63
2022/10/27 04:45:49;;;;;;;18.02;6.72;;;;;;;13.23;100.00;102132.09;5068204;28;20708;-64
2022/10/27 04:48:15;;;;;;;12.80;6.13;;;;;;;13.24;100.00;102133.81;5067837;28;20670;-64
2022/10/27 04:50:40;;;;;;;16.83;7.15;;;;;;;13.26;100.00;102130.25;5068343;28;20107;-64
2022/10/27 04:53:05;;;;;;;18.63;6.03;;;;;;;13.28;100.00;102130.22;5068029;28;20056;-64
2022/10/27 04:55:32;;;;;;;13.80;6.15;;;;;;;13.30;100.00;102120.44;5068758;28;20051;-63
2022/10/27 04:57:57;;;;;;;12.65;5.78;;;;;;;13.34;100.00;102121.25;5068003;28;20052;-65
2022/10/27 05:00:23;;;;;;;10.95;5.60;;;;;;;13.38;100.00;102114.97;5066907;28;20060;-61
2022/10/27 05:02:55;;;;;;;12.93;6.05;;;;;;;13.39;100.00;102120.22;5046226;28;20056;-64
2022/10/27 05:05:22;;;;;;;12.05;5.32;;;;;;;13.46;100.00;102112.13;5047784;28;20057;-62
2022/10/27 05:07:55;;;;;;;11.45;5.57;;;;;;;13.49;100.00;102112.06;5047385;28;20024;-64
2022/10/27 05:10:21;;;;;;;14.32;5.57;;;;;;;13.45;100.00;102105.09;5048291;28;20438;-64
2022/10/27 05:12:46;;;;;;;13.00;5.63;;;;;;;13.45;100.00;102111.25;5029934;28;20083;-65
2022/10/27 05:15:12;;;;;;;12.73;5.95;;;;;;;13.41;100.00;102106.94;5047695;28;20053;-64
2022/10/27 05:17:37;;;;;;;9.35;5.28;;;;;;;13.42;100.00;102107.81;5048398;28;20025;-64
2022/10/27 05:20:03;;;;;;;15.45;6.35;;;;;;;13.37;100.00;102107.94;5049011;28;20021;-65
2022/10/27 05:22:28;;;;;;;10.20;5.47;;;;;;;13.37;100.00;102108.78;5048902;28;20467;-64
2022/10/27 05:24:54;;;;;;;14.70;5.60;;;;;;;13.36;100.00;102103.53;5034225;28;20043;-64
2022/10/27 05:27:19;;;;;;;8.88;4.53;;;;;;;13.33;100.00;102101.84;5067601;28;20028;-63
2022/10/27 05:29:44;;;;;;;13.07;5.22;;;;;;;13.33;100.00;102098.34;5066830;28;20028;-62
2022/10/27 05:32:10;;;;;;;8.93;5.47;;;;;;;13.31;100.00;102092.22;5067066;28;20048;-63
2022/10/27 05:34:35;;;;;;;14.38;5.30;;;;;;;13.23;100.00;102105.63;5050308;28;20027;-65
2022/10/27 05:37:00;;;;;;;10.88;5.32;;;;;;;13.19;100.00;102109.25;5068622;28;20044;-63
2022/10/27 05:39:26;;;;;;;11.27;4.82;;;;;;;13.11;100.00;102107.69;5067578;28;20025;-64
2022/10/27 05:41:51;;;;;;;8.10;4.47;;;;;;;13.09;100.00;102105.94;5066782;28;20036;-65
2022/10/27 05:44:17;;;;;;;14.13;5.28;;;;;;;13.06;100.00;102100.75;5066723;28;20070;-64
2022/10/27 05:46:42;;;;;;;10.82;4.97;;;;;;;13.09;100.00;102108.59;5066212;28;20082;-65
2022/10/27 05:49:07;;;;;;;12.93;4.82;;;;;;;13.06;100.00;102100.75;5066691;28;20059;-65
2022/10/27 05:51:33;;;;;;;8.27;4.65;;;;;;;13.09;100.00;102098.91;5045683;28;20127;-65
2022/10/27 05:53:58;;;;;;;11.15;4.85;;;;;;;13.13;100.00;102097.91;5049186;28;20028;-65
2022/10/27 05:56:23;;;;;;;12.05;4.65;;;;;;;13.17;100.00;102096.06;5065801;28;20493;-64
2022/10/27 05:58:49;;;;;;;9.68;4.82;;;;;;;13.17;100.00;102093.41;5067276;28;20437;-65
2022/10/27 06:01:14;;;;;;;6.47;4.47;;;;;;;13.17;100.00;102081.97;5066705;28;20032;-65
2022/10/27 06:03:39;;;;;;;8.52;4.47;;;;;;;13.25;100.00;102080.00;5066127;28;20696;-65
2022/10/27 06:06:05;;;;;;;11.93;4.93;;;;;;;13.23;100.00;102074.75;5049155;28;20020;-64
2022/10/27 06:08:30;;;;;;;10.40;4.28;;;;;;;13.21;100.00;102073.03;5067834;28;20039;-65
2022/10/27 06:10:55;;;;;;;6.45;4.05;;;;;;;13.20;100.00;102082.75;5066659;28;20028;-64
2022/10/27 06:13:21;;;;;;;11.50;4.68;;;;;;;13.18;100.00;102067.84;5048978;28;20033;-65
2022/10/27 06:15:47;;;;;;;13.65;4.85;;;;;;;13.17;100.00;102074.00;5065244;28;20717;-65
2022/10/27 06:18:12;;;;;;;14.75;4.10;;;;;;;13.20;100.00;102071.28;5066878;28;20035;-62
2022/10/27 06:20:38;;;;;;;5.82;4.00;;;;;;;13.18;100.00;102060.75;5066254;28;20021;-63
2022/10/27 06:23:03;;;;;;;11.45;4.22;;;;;;;13.14;100.00;102065.25;5040386;28;20020;-64
2022/10/27 06:25:28;;;;;;;9.57;3.92;;;;;;;13.15;100.00;102066.13;5060291;28;20025;-62
2022/10/27 06:27:54;;;;;;;12.00;5.10;;;;;;;13.15;100.00;102066.13;5065902;28;20490;-64
2022/10/27 06:30:19;;;;;;;11.07;4.55;;;;;;;13.13;100.00;102066.16;5065353;28;20020;-61
2022/10/27 06:32:45;;;;;;;10.52;4.20;;;;;;;13.17;100.00;102060.78;5056897;28;20056;-63
2022/10/27 06:35:10;;;;;;;12.25;4.10;;;;;;;13.15;100.00;102060.81;5054133;28;20324;-60
2022/10/27 06:37:39;;;;;;;18.05;4.38;;;;;;;13.18;100.00;102051.97;5045799;28;20390;-65
2022/10/27 06:40:06;;;;;;;15.45;4.60;;;;;;;13.21;100.00;102054.50;5060500;28;20098;-66
2022/10/27 06:42:31;;;;;;;7.30;3.70;;;;;;;13.22;100.00;102041.22;5062506;28;20084;-65
2022/10/27 06:44:56;;;;;;;8.88;4.25;;;;;;;13.21;100.00;102041.25;5063622;28;20132;-63
2022/10/27 06:47:22;;;;;;;11.18;4.13;;;;;;;13.19;100.00;102045.75;5063510;28;20860;-65
2022/10/27 06:49:47;;;;;;;9.02;3.55;;;;;;;13.19;100.00;102049.28;5063372;28;20051;-64
2022/10/27 06:52:12;;;;;;;8.43;3.63;;;;;;;13.25;100.00;102048.25;5063804;28;20033;-66
2022/10/27 06:54:38;;;;;;;9.95;3.75;;;;;;;13.27;100.00;102054.34;5064134;28;20020;-66
2022/10/27 06:57:03;;;;;;;9.18;3.85;;;;;;;13.27;100.00;102054.34;5045894;28;20016;-64
2022/10/27 06:59:28;;;;;;;12.85;3.78;;;;;;;13.28;100.00;102053.47;5065019;28;20017;-62
2022/10/27 07:01:54;;;;;;;10.55;3.70;;;;;;;13.32;100.00;102047.16;5064625;28;20024;-64
2022/10/27 07:04:19;;;;;;;8.63;3.50;;;;;;;13.31;100.00;102053.38;5065813;28;20016;-65
2022/10/27 07:06:44;;;;;;;10.23;4.40;;;;;;;13.32;100.00;102057.75;5066272;28;20066;-65
2022/10/27 07:09:10;;;;;;;5.68;3.72;;;;;;;13.37;100.00;102061.13;5064582;28;20025;-62
2022/10/27 07:11:36;;;;;;;10.02;3.55;;;;;;;13.36;100.00;102059.41;5064107;28;20023;-63
2022/10/27 07:14:01;;;;;;;8.18;3.72;;;;;;;13.32;100.00;102056.88;5046993;28;20047;-63
2022/10/27 07:16:26;;;;;;;7.57;3.60;;;;;;;13.31;100.00;102056.03;5056347;28;20052;-61
2022/10/27 07:18:52;;;;;;;11.55;4.15;;;;;;;13.35;100.00;102065.63;5052793;28;20036;-62
2022/10/27 07:21:17;;;;;;;8.38;3.90;;;;;;;13.35;100.00;102057.69;5055106;28;20053;-62
2022/10/27 07:23:42;;;;;;;10.15;3.75;;;;;;;13.39;100.00;102050.50;5046613;28;20045;-64
2022/10/27 07:26:08;;;;;;;8.93;3.58;;;;;;;13.43;100.00;102051.31;5036132;28;20074;-63
2022/10/27 07:28:33;;;;;;;10.10;3.67;;;;;;;13.45;100.00;102041.56;5063866;28;20460;-64
2022/10/27 07:30:59;;;;;;;6.93;3.55;;;;;;;13.48;100.00;102044.97;5064576;28;20025;-63
2022/10/27 07:33:24;;;;;;;9.75;3.58;;;;;;;13.54;100.00;102049.25;5045227;28;20025;-64
2022/10/27 07:35:50;;;;;;;6.43;3.17;;;;;;;13.61;100.00;102049.97;5065404;28;20027;-64
2022/10/27 07:38:16;;;;;;;10.05;3.33;;;;;;;13.64;100.00;102056.03;5065414;28;20037;-64
2022/10/27 07:40:42;;;;;;;8.63;2.85;;;;;;;13.74;100.00;102050.50;5064587;28;20142;-63
2022/10/27 07:43:08;;;;;;;5.55;2.90;;;;;;;13.83;100.00;102059.97;5064908;28;20028;-63
2022/10/27 07:45:38;;;;;;;9.05;2.80;;;;;;;13.97;100.00;102054.28;5065203;28;20025;-62
2022/10/27 07:48:03;;;;;;;10.25;2.70;;;;;;;14.06;100.00;102056.66;5065081;28;20037;-64
2022/10/27 07:50:32;;;;;;;11.07;2.75;;;;;;;14.06;100.00;102061.94;5063947;28;20108;-62
2022/10/27 07:52:57;;;;;;;4.43;2.30;;;;;;;14.12;100.00;102051.16;5064105;28;20070;-64
2022/10/27 07:55:24;;;;;;;5.63;2.42;;;;;;;14.32;100.00;102047.06;5054325;28;20270;-64
2022/10/27 07:58:09;;;;;;;6.28;2.53;;;;;;;14.45;100.00;102041.41;5065261;28;20024;-65
2022/10/27 08:00:45;;;;;;;5.53;2.25;;;;;;;14.57;100.00;102043.63;5067592;28;20028;-64
2022/10/27 08:03:14;;;;;;;6.05;2.10;;;;;;;14.66;100.00;102040.69;5069018;28;20033;-66
2022/10/27 08:05:39;;;;;;;;;;;;;;;14.78;100.00;102044.78;5068911;28;20505;-63
2022/10/27 08:08:06;;;;;;;5.25;2.00;;;;;;;14.89;100.00;102035.59;5067999;28;19978;-65
2022/10/27 08:10:33;;;;;;;6.70;2.08;;;;;;;14.97;100.00;102030.03;5067731;28;20364;-60
2022/10/27 08:12:58;;;;;;;11.20;2.10;;;;;;;15.09;100.00;102028.75;5068677;28;20027;-63
2022/10/27 08:15:24;;;;;;;6.10;2.20;;;;;;;15.15;100.00;102040.03;5068068;28;20402;-62
2022/10/27 08:17:51;;;;;;;4.50;1.90;;;;;;;15.33;100.00;102034.16;5068155;28;20095;-65
2022/10/27 08:20:17;;;;;;;4.75;1.90;;;;;;;15.41;100.00;102040.03;5068438;28;20090;-63
2022/10/27 08:22:42;;;;;;;5.63;1.98;;;;;;;15.50;100.00;102036.22;5068349;28;20020;-66
2022/10/27 08:25:07;;;;;;;5.97;1.75;;;;;;;15.46;100.00;102034.56;5065826;28;20459;-64
2022/10/27 08:27:33;;;;;;;5.07;1.92;;;;;;;15.54;100.00;102037.84;5050503;28;20497;-65
2022/10/27 08:29:58;;;;;;;7.07;2.20;;;;;;;15.60;100.00;102037.63;5061222;28;20029;-65
2022/10/27 08:32:23;;;;;;;10.88;1.92;;;;;;;15.81;100.00;102040.41;5066021;28;20444;-64
2022/10/27 08:34:49;;;;;;;6.20;2.03;;;;;;;15.86;100.00;102030.47;5067776;28;20085;-67
2022/10/27 08:37:14;;;;;;;7.05;1.88;;;;;;;15.97;100.00;102029.22;5068197;28;20033;-62
2022/10/27 08:39:39;;;;;;;6.85;2.25;;;;;;;16.06;100.00;102026.22;5051220;28;20028;-64
2022/10/27 08:42:29;;;;;;;6.28;1.88;;;;;;;16.20;100.00;102019.50;5068954;28;20107;-66
2022/10/27 08:44:59;;;;;;;6.47;2.13;;;;;;;16.24;100.00;102016.66;5069473;28;20052;-65
2022/10/27 08:47:25;;;;;;;4.25;1.70;;;;;;;16.18;100.00;102014.25;5068157;28;20470;-64
2022/10/27 08:49:57;;;;;;;7.63;1.80;;;;;;;16.31;100.00;102011.97;5065833;28;20099;-63
2022/10/27 08:52:31;;;;;;;5.72;2.15;;;;;;;16.27;100.00;102003.25;5049332;28;21171;-67
2022/10/27 08:55:03;;;;;;;5.97;1.95;;;;;;;16.28;100.00;102001.44;5065744;28;20031;-65
2022/10/27 08:57:31;;;;;;;6.60;1.85;;;;;;;16.27;100.00;101997.06;5067180;28;20020;-62
2022/10/27 08:59:57;;;;;;;5.18;2.03;;;;;;;16.24;100.00;101994.53;5067467;28;20067;-64
2022/10/27 09:02:31;;;;;;;2.67;1.85;;;;;;;16.31;100.00;102000.47;5067833;28;20070;-64
2022/10/27 09:05:34;;;;;;;2.92;2.00;;;;;;;16.52;100.00;101998.72;5067011;28;20090;-67
2022/10/27 09:08:32;;;;;;;4.78;1.77;;;;;;;16.56;100.00;101997.69;5068008;28;20036;-65
2022/10/27 09:11:06;;;;;;;5.18;1.70;;;;;;;16.70;100.00;101996.25;5044139;28;20033;-63
2022/10/27 09:13:39;;;;;;;8.75;1.80;;;;;;;16.65;100.00;101996.44;5068799;28;20043;-65
2022/10/27 09:16:06;;;;;;;5.32;1.80;;;;;;;16.57;100.00;101996.75;5065534;28;20465;-63
2022/10/27 09:19:02;;;;;;;10.18;2.00;;;;;;;16.69;100.00;101990.06;5060391;28;20383;-66
2022/10/27 09:21:30;;;;;;;6.00;1.80;;;;;;;16.73;100.00;101990.78;5024734;28;20105;-65
2022/10/27 09:24:01;;;;;;;7.40;1.80;;;;;;;16.77;100.00;101984.44;5047128;28;20020;-64
2022/10/27 09:26:30;;;;;;;5.28;1.70;;;;;;;16.77;100.00;101977.28;5048154;28;20463;-60
2022/10/27 09:28:55;;;;;;;;;;;;;;;16.62;100.00;101989.44;5048911;28;20041;-64
2022/10/27 09:31:34;;;;;;;6.75;1.70;;;;;;;16.74;100.00;101985.41;5045308;28;19916;-64
2022/10/27 09:34:04;;;;;;;4.55;1.83;;;;;;;17.04;100.00;101992.19;5048522;28;20093;-65
2022/10/27 09:36:29;;;;;;;3.55;1.90;;;;;;;17.22;100.00;101981.69;5066720;28;20159;-62
2022/10/27 09:38:54;;;;;;;6.18;1.80;;;;;;;17.40;100.00;101970.19;5066667;28;20112;-66
2022/10/27 09:41:20;;;;;;;7.68;2.00;;;;;;;17.51;100.00;101967.06;5064626;28;20031;-63
2022/10/27 09:43:47;;;;;;;3.30;1.50;;;;;;;17.61;100.00;101972.81;5048673;28;20064;-64
2022/10/27 09:46:23;;;;;;;7.00;1.98;;;;;;;17.59;100.00;101966.72;5048202;28;20031;-65
2022/10/27 09:48:50;;;;;;;4.00;1.73;;;;;;;17.74;100.00;101950.94;5065777;28;20028;-63
2022/10/27 09:51:40;;;;;;;6.88;1.55;;;;;;;17.79;100.00;101951.59;5065791;28;20021;-61
2022/10/27 09:54:33;;;;;;;5.18;1.60;;;;;;;17.67;100.00;101942.38;5059839;28;20056;-64
2022/10/27 09:57:04;;;;;;;3.50;1.40;;;;;;;17.89;100.00;101947.56;5065378;28;20017;-67
2022/10/27 09:59:29;;;;;;;3.30;1.40;;;;;;;17.93;100.00;101941.13;5049677;28;20036;-62
2022/10/27 10:01:58;;;;;;;5.85;1.63;;;;;;;18.00;99.98;101946.19;5067140;28;20017;-64
2022/10/27 10:04:26;;;;;;;5.90;1.60;;;;;;;17.99;100.00;101941.75;5065437;28;20039;-62
2022/10/27 10:07:00;;;;;;;3.40;1.45;;;;;;;17.89;100.00;101930.69;5060899;28;20033;-65
2022/10/27 10:09:27;;;;;;;6.15;1.38;;;;;;;17.85;100.00;101934.44;5035692;28;20108;-64
2022/10/27 10:12:25;;;;;;;5.10;1.45;;;;;;;17.80;100.00;101934.66;5057364;28;20032;-65
2022/10/27 10:14:52;;;;;;;11.03;1.50;;;;;;;18.15;100.00;101934.78;5040092;28;20049;-61
2022/10/27 10:17:23;;;;;;;3.05;1.33;;;;;;;18.19;100.00;101939.03;5036356;28;20058;-63
2022/10/27 10:19:50;;;;;;;6.03;2.20;;;;;;;18.16;99.96;101935.66;5047410;28;20020;-62
2022/10/27 10:22:34;;;;;;;3.42;1.50;;;;;;;18.31;100.00;101939.38;5046799;28;20087;-63
2022/10/27 10:25:22;;;;;;;7.90;2.00;;;;;;;18.35;98.38;101935.63;5046880;28;20028;-64
2022/10/27 10:27:56;;;;;;;2.72;1.50;;;;;;;18.34;98.67;101930.34;5045676;28;20086;-65
2022/10/27 10:30:21;;;;;;;8.05;1.70;;;;;;;18.31;98.94;101939.38;5047071;28;20528;-61
2022/10/27 10:32:48;;;;;;;11.15;1.88;;;;;;;18.16;99.92;101925.88;5066575;28;20028;-65
2022/10/27 10:35:45;;;;;;;3.28;1.80;;;;;;;18.25;99.08;101939.69;5058073;28;20044;-65
2022/10/27 10:38:22;;;;;;;6.03;1.70;;;;;;;18.44;99.27;101924.50;5053774;28;20360;-65
2022/10/27 10:41:00;;;;;;;5.30;1.70;;;;;;;18.37;100.00;101917.75;5052426;28;20017;-63
2022/10/27 10:43:26;;;;;;;15.33;4.10;;;;;;;18.39;99.26;101925.66;5048942;28;20025;-66
2022/10/27 10:45:51;;;;;;;23.77;6.72;;;;;;;18.51;99.30;101919.69;5064328;28;20112;-65
2022/10/27 10:48:26;;;;;;;9.05;2.40;;;;;;;18.65;98.30;101919.00;5051685;28;20037;-64
2022/10/27 10:50:51;;;;;;;5.70;1.92;;;;;;;18.76;98.58;101918.47;5046651;28;20104;-63
2022/10/27 10:53:23;;;;;;;5.30;1.83;;;;;;;18.84;97.95;101915.38;5046784;28;20035;-64
2022/10/27 10:55:49;;;;;;;7.78;1.67;;;;;;;18.74;99.11;101919.47;5028497;28;20124;-61
2022/10/27 10:58:16;;;;;;;4.55;1.83;;;;;;;18.96;98.34;101913.88;5047408;28;20063;-64
2022/10/27 11:00:56;;;;;;;10.50;2.67;;;;;;;18.89;98.06;101912.47;5055860;28;20037;-63
2022/10/27 11:03:23;;;;;;;4.72;1.60;;;;;;;19.10;97.37;101917.66;5052933;28;20021;-65
2022/10/27 11:05:55;;;;;;;7.68;1.90;;;;;;;18.94;98.44;101921.13;5037116;28;20021;-64
2022/10/27 11:08:28;;;;;;;4.47;1.83;;;;;;;18.89;97.89;101917.81;5060455;28;20421;-64
2022/10/27 11:10:54;;;;;;;4.68;1.90;;;;;;;18.76;99.37;101915.78;5066658;28;20036;-63
2022/10/27 11:13:23;;;;;;;6.38;1.88;;;;;;;18.71;99.63;101914.28;5049675;28;20035;-66
2022/10/27 11:16:00;;;;;;;6.43;1.90;;;;;;;18.78;99.58;101910.38;5050068;28;20059;-64
2022/10/27 11:18:28;;;;;;;5.78;2.13;;;;;;;18.66;100.00;101912.72;5065422;28;20017;-64
2022/10/27 11:20:59;;;;;;;8.40;2.17;;;;;;;18.72;100.00;101916.03;5050122;28;21259;-65